Time;durP1;ratioP1;P1;durP2;ratioP2;P2;SDS_P1;SDS_P2;PMS_P1;PMS_P2;Temp;Humidity;BMP_temperature;BMP_pressure;BME280_temperature;BME280_humidity;BME280_pressure;Samples;Min_cycle;Max_cycle;Signal;HPM_P1;HPM_P2
2023/12/27 00:01:19;;;;;;;31.92;8.50;;;;;;;5.22;100.00;101831.75;4955497;28;20508;-81
2023/12/27 00:03:44;;;;;;;36.47;8.15;;;;;;;5.15;100.00;101825.69;4986577;28;20117;-81
2023/12/27 00:06:10;;;;;;;32.22;8.07;;;;;;;5.14;100.00;101828.47;4953707;28;20040;-81
2023/12/27 00:08:35;;;;;;;33.03;8.38;;;;;;;5.04;100.00;101813.50;4951690;28;20381;-82
2023/12/27 00:11:04;;;;;;;26.17;8.27;;;;;;;5.11;100.00;101817.72;4968742;28;20036;-81
2023/12/27 00:13:29;;;;;;;28.02;8.27;;;;;;;5.07;100.00;101821.53;4967467;28;20036;-81
2023/12/27 00:15:55;;;;;;;31.02;7.72;;;;;;;5.06;100.00;101817.91;4966085;28;20031;-82
2023/12/27 00:18:20;;;;;;;40.38;9.27;;;;;;;5.08;100.00;101820.56;4954743;28;20488;-82
2023/12/27 00:20:47;;;;;;;29.98;8.88;;;;;;;5.02;100.00;101807.25;4969275;28;20038;-82
2023/12/27 00:23:13;;;;;;;31.33;8.73;;;;;;;4.98;100.00;101803.78;4985390;28;20038;-81
2023/12/27 00:25:39;;;;;;;22.92;8.00;;;;;;;4.99;100.00;101805.56;4945676;28;20034;-82
2023/12/27 00:28:04;;;;;;;25.95;7.70;;;;;;;4.91;100.00;101800.41;4954553;28;21075;-82
2023/12/27 00:30:31;;;;;;;36.85;8.30;;;;;;;4.89;100.00;101801.44;4967138;28;20043;-81
2023/12/27 00:32:57;;;;;;;28.55;8.30;;;;;;;5.00;100.00;101801.00;4938481;28;20039;-81
2023/12/27 00:35:22;;;;;;;28.02;7.10;;;;;;;4.82;100.00;101797.19;4966516;28;20042;-81
2023/12/27 00:37:47;;;;;;;37.83;7.30;;;;;;;4.92;100.00;101796.78;4968829;28;20111;-81
2023/12/27 00:40:13;;;;;;;24.75;7.40;;;;;;;4.95;100.00;101801.19;4969300;28;20043;-81
2023/12/27 00:42:39;;;;;;;19.85;6.70;;;;;;;4.84;100.00;101807.06;4956804;28;20042;-87
2023/12/27 00:45:04;;;;;;;23.60;7.13;;;;;;;4.91;100.00;101807.69;4976042;28;20030;-86
2023/12/27 00:47:30;;;;;;;22.80;6.40;;;;;;;4.74;100.00;101805.66;4963302;28;20030;-87
2023/12/27 00:49:55;;;;;;;32.08;7.88;;;;;;;4.79;100.00;101812.66;4973072;28;20154;-88
2023/12/27 00:52:21;;;;;;;25.15;6.53;;;;;;;4.73;100.00;101798.44;4973097;28;20038;-85
2023/12/27 00:54:46;;;;;;;23.85;7.53;;;;;;;4.71;100.00;101803.06;4973712;28;20552;-88
2023/12/27 00:57:12;;;;;;;25.05;6.70;;;;;;;4.75;100.00;101799.28;4960568;28;20030;-88
2023/12/27 00:59:37;;;;;;;22.67;6.85;;;;;;;4.77;100.00;101789.22;4975598;28;20041;-89
2023/12/27 01:02:03;;;;;;;33.25;8.13;;;;;;;4.93;100.00;101792.22;4976525;28;20050;-86
2023/12/27 01:04:28;;;;;;;31.50;7.70;;;;;;;4.81;100.00;101792.72;4967955;28;20034;-86
2023/12/27 01:06:54;;;;;;;35.40;8.48;;;;;;;4.85;100.00;101792.53;4982581;28;20027;-86
2023/12/27 01:09:20;;;;;;;28.98;7.72;;;;;;;4.79;100.00;101798.22;4985949;28;20039;-86
2023/12/27 01:11:45;;;;;;;30.80;6.85;;;;;;;4.76;100.00;101790.19;4990650;28;20054;-86
2023/12/27 01:14:11;;;;;;;25.70;6.97;;;;;;;4.78;100.00;101802.72;4957054;28;20423;-85
2023/12/27 01:16:36;;;;;;;23.35;7.22;;;;;;;4.80;100.00;101799.97;4968154;28;20034;-86
2023/12/27 01:19:01;;;;;;;22.60;7.38;;;;;;;4.83;100.00;101799.84;4969026;28;20054;-85
2023/12/27 01:21:27;;;;;;;35.70;7.43;;;;;;;4.87;100.00;101801.50;4961576;28;20031;-87
2023/12/27 01:23:52;;;;;;;36.65;8.60;;;;;;;4.78;100.00;101805.44;4960184;28;20033;-86
2023/12/27 01:26:17;;;;;;;36.63;7.60;;;;;;;4.76;100.00;101799.22;4960561;28;20443;-87
2023/12/27 01:28:43;;;;;;;32.10;8.50;;;;;;;4.71;100.00;101801.22;4974863;28;20118;-85
2023/12/27 01:31:09;;;;;;;36.97;7.85;;;;;;;4.73;100.00;101799.31;4957806;28;20038;-86
2023/12/27 01:33:35;;;;;;;40.60;7.93;;;;;;;4.67;100.00;101793.25;4975138;28;20477;-86
2023/12/27 01:36:08;;;;;;;31.80;8.48;;;;;;;4.54;100.00;101788.34;4958803;28;20082;-86
2023/12/27 01:38:34;;;;;;;24.48;7.38;;;;;;;4.46;100.00;101785.03;5000290;28;20019;-85
2023/12/27 01:40:59;;;;;;;33.28;8.15;;;;;;;4.45;100.00;101783.25;4958060;28;20038;-86
2023/12/27 01:43:25;;;;;;;30.52;8.65;;;;;;;4.33;100.00;101778.28;4966865;28;20086;-86
2023/12/27 01:45:50;;;;;;;28.33;7.88;;;;;;;4.49;100.00;101786.72;4968994;28;20043;-86
2023/12/27 01:48:20;;;;;;;26.08;8.00;;;;;;;4.46;100.00;101787.75;4972039;28;20722;-85
2023/12/27 01:50:49;;;;;;;35.63;8.38;;;;;;;4.49;100.00;101790.31;4975479;28;20037;-86
2023/12/27 01:53:16;;;;;;;36.55;8.77;;;;;;;4.35;100.00;101785.44;4964077;28;20511;-81
2023/12/27 01:55:43;;;;;;;23.92;8.30;;;;;;;4.38;100.00;101792.59;4956134;28;20737;-81
2023/12/27 01:58:10;;;;;;;28.40;8.93;;;;;;;4.50;100.00;101794.81;4966743;28;20400;-81
2023/12/27 02:00:37;;;;;;;30.63;8.80;;;;;;;4.45;100.00;101791.38;4939334;28;20548;-81
2023/12/27 02:03:03;;;;;;;33.15;9.95;;;;;;;4.47;100.00;101797.63;4983899;28;20026;-81
2023/12/27 02:05:29;;;;;;;31.30;8.10;;;;;;;4.40;100.00;101801.53;4973146;28;20073;-84
2023/12/27 02:07:55;;;;;;;38.03;10.32;;;;;;;4.39;100.00;101792.53;4988646;28;20035;-81
2023/12/27 02:10:21;;;;;;;39.20;10.27;;;;;;;4.51;100.00;101793.88;4961740;28;20105;-81
2023/12/27 02:12:46;;;;;;;35.92;10.20;;;;;;;4.50;100.00;101791.22;4953187;28;20508;-81
2023/12/27 02:15:11;;;;;;;25.83;10.13;;;;;;;4.50;100.00;101789.38;4956829;28;20046;-81
2023/12/27 02:17:37;;;;;;;33.92;10.20;;;;;;;4.48;100.00;101782.28;4963575;28;20031;-81
2023/12/27 02:20:03;;;;;;;25.60;9.50;;;;;;;4.49;100.00;101775.88;4972716;28;20035;-81
2023/12/27 02:22:33;;;;;;;33.47;10.07;;;;;;;4.43;100.00;101777.00;4971912;28;20537;-81
2023/12/27 02:24:59;;;;;;;31.42;9.80;;;;;;;4.44;100.00;101781.47;4970734;28;20038;-81
2023/12/27 02:27:24;;;;;;;33.25;10.50;;;;;;;4.52;100.00;101779.34;4963477;28;20027;-81
2023/12/27 02:29:50;;;;;;;28.60;10.48;;;;;;;4.45;100.00;101769.69;4953817;28;20424;-81
2023/12/27 02:32:15;;;;;;;33.63;10.18;;;;;;;4.48;100.00;101774.13;4955684;28;20054;-80
2023/12/27 02:34:41;;;;;;;45.10;11.00;;;;;;;4.53;100.00;101766.69;4936746;29;20146;-80
2023/12/27 02:37:06;;;;;;;36.10;10.05;;;;;;;4.46;100.00;101767.84;4939654;28;20508;-80
2023/12/27 02:39:31;;;;;;;33.90;9.77;;;;;;;4.47;100.00;101767.81;4970872;28;20392;-81
2023/12/27 02:41:57;;;;;;;40.92;10.52;;;;;;;4.49;100.00;101762.31;4968751;28;20019;-81
2023/12/27 02:44:26;;;;;;;28.80;10.05;;;;;;;4.49;100.00;101749.63;4969828;28;20034;-81
2023/12/27 02:46:54;;;;;;;27.17;9.45;;;;;;;4.51;100.00;101758.63;4953049;28;20378;-81
2023/12/27 02:49:20;;;;;;;30.92;9.60;;;;;;;4.45;100.00;101748.00;4971363;28;20400;-81
2023/12/27 02:51:46;;;;;;;27.58;10.30;;;;;;;4.47;100.00;101747.94;4972361;28;20045;-81
2023/12/27 02:54:11;;;;;;;30.50;10.88;;;;;;;4.45;100.00;101749.84;4972149;28;20050;-81
2023/12/27 02:56:37;;;;;;;36.95;10.73;;;;;;;4.49;100.00;101729.78;4970659;28;20035;-81
2023/12/27 02:59:02;;;;;;;28.65;9.68;;;;;;;4.58;100.00;101743.84;4964696;28;20043;-81
2023/12/27 03:01:27;;;;;;;35.05;8.85;;;;;;;4.59;100.00;101733.88;4963979;28;20508;-81
2023/12/27 03:03:53;;;;;;;27.30;9.38;;;;;;;4.53;100.00;101726.88;4955531;28;20057;-81
2023/12/27 03:06:18;;;;;;;33.10;9.63;;;;;;;4.50;100.00;101716.16;4969678;28;20034;-80
2023/12/27 03:08:43;;;;;;;35.05;8.35;;;;;;;4.49;100.00;101724.34;4953081;28;22018;-80
2023/12/27 03:11:09;;;;;;;28.55;9.20;;;;;;;4.50;100.00;101718.88;4987213;28;20035;-80
2023/12/27 03:13:34;;;;;;;26.83;8.88;;;;;;;4.54;100.00;101719.63;4955470;28;20558;-81
2023/12/27 03:16:07;;;;;;;33.08;9.70;;;;;;;4.50;100.00;101726.13;4956047;28;20030;-81
2023/12/27 03:18:36;;;;;;;25.83;9.32;;;;;;;4.62;100.00;101722.03;4949859;28;20035;-81
2023/12/27 03:21:01;;;;;;;23.88;8.75;;;;;;;4.62;100.00;101706.66;4964729;28;20098;-81
2023/12/27 03:23:27;;;;;;;28.52;8.32;;;;;;;4.56;100.00;101702.38;4955208;28;20183;-81
2023/12/27 03:25:56;;;;;;;29.48;8.63;;;;;;;4.56;100.00;101707.78;4967583;28;20027;-81
2023/12/27 03:28:23;;;;;;;33.75;9.25;;;;;;;4.57;100.00;101703.25;4968321;28;20138;-81
2023/12/27 03:30:48;;;;;;;28.50;9.52;;;;;;;4.59;100.00;101694.09;4954078;28;20038;-81
2023/12/27 03:33:13;;;;;;;28.00;7.82;;;;;;;4.62;100.00;101686.78;4968348;28;20037;-81
2023/12/27 03:35:39;;;;;;;28.58;8.70;;;;;;;4.64;100.00;101687.59;4971975;28;20146;-81
2023/12/27 03:38:05;;;;;;;25.40;7.93;;;;;;;4.64;100.00;101684.88;4954449;28;20559;-81
2023/12/27 03:40:30;;;;;;;29.83;9.00;;;;;;;4.73;100.00;101682.69;4952355;28;20046;-81
2023/12/27 03:42:55;;;;;;;32.00;8.48;;;;;;;4.71;100.00;101683.72;4982867;28;20405;-81
2023/12/27 03:45:21;;;;;;;32.95;8.85;;;;;;;4.67;100.00;101676.63;4934442;28;20489;-80
2023/12/27 03:47:46;;;;;;;27.05;7.90;;;;;;;4.79;100.00;101676.13;4952486;28;20118;-80
2023/12/27 03:50:12;;;;;;;29.27;7.90;;;;;;;4.74;100.00;101657.34;4938916;28;20062;-81
2023/12/27 03:52:38;;;;;;;25.60;7.30;;;;;;;4.75;100.00;101650.94;4953487;28;20078;-81
2023/12/27 03:55:05;;;;;;;27.75;8.13;;;;;;;4.82;100.00;101656.13;4955258;28;20078;-81
2023/12/27 03:57:30;;;;;;;24.45;7.47;;;;;;;4.74;100.00;101646.47;4968596;28;20031;-81
2023/12/27 03:59:56;;;;;;;23.88;7.55;;;;;;;4.70;100.00;101649.38;4986423;28;21801;-81
2023/12/27 04:02:21;;;;;;;26.67;8.07;;;;;;;4.65;100.00;101636.00;4969944;28;20038;-81
2023/12/27 04:04:47;;;;;;;26.17;7.70;;;;;;;4.64;100.00;101639.69;4974163;28;20034;-81
2023/12/27 04:07:13;;;;;;;23.70;7.47;;;;;;;4.63;100.00;101640.63;4970699;28;20042;-80
2023/12/27 04:09:39;;;;;;;23.77;7.10;;;;;;;4.69;100.00;101637.66;4948294;28;20431;-81
2023/12/27 04:12:05;;;;;;;21.73;6.85;;;;;;;4.68;100.00;101633.16;4960080;28;20070;-84
2023/12/27 04:14:31;;;;;;;29.73;6.70;;;;;;;4.66;100.00;101628.78;4961575;28;20093;-85
2023/12/27 04:16:56;;;;;;;26.13;6.55;;;;;;;4.61;100.00;101623.53;4970547;28;20062;-86
2023/12/27 04:19:22;;;;;;;28.90;6.78;;;;;;;4.60;100.00;101617.22;4983106;28;20511;-87
2023/12/27 04:21:47;;;;;;;16.98;6.10;;;;;;;4.64;100.00;101619.78;4959502;28;20066;-88
2023/12/27 04:24:12;;;;;;;31.58;7.22;;;;;;;4.68;100.00;101621.44;4988881;28;20042;-86
2023/12/27 04:26:41;;;;;;;25.48;6.53;;;;;;;4.73;100.00;101619.41;4971201;28;20027;-85
2023/12/27 04:29:08;;;;;;;27.02;6.85;;;;;;;4.74;100.00;101615.75;4972542;28;20057;-86
2023/12/27 04:31:33;;;;;;;21.65;6.70;;;;;;;4.75;100.00;101612.97;4978000;28;20054;-86
2023/12/27 04:33:59;;;;;;;22.88;6.53;;;;;;;4.81;100.00;101617.25;4974733;28;20036;-86
2023/12/27 04:36:24;;;;;;;21.33;6.40;;;;;;;4.91;100.00;101615.03;4954559;28;20540;-85
2023/12/27 04:38:50;;;;;;;29.20;6.78;;;;;;;4.84;100.00;101621.66;4986430;28;20137;-86
2023/12/27 04:41:15;;;;;;;18.33;5.70;;;;;;;4.89;100.00;101619.66;4993212;28;20023;-85
2023/12/27 04:43:41;;;;;;;22.83;5.50;;;;;;;4.94;100.00;101614.91;4973585;28;20058;-85
2023/12/27 04:46:07;;;;;;;32.30;6.68;;;;;;;4.95;100.00;101614.84;4968578;28;20056;-85
2023/12/27 04:48:33;;;;;;;26.02;6.03;;;;;;;5.01;100.00;101607.38;4964367;28;20059;-86
2023/12/27 04:50:58;;;;;;;17.77;5.60;;;;;;;4.99;100.00;101609.28;4985126;28;20098;-86
2023/12/27 04:53:24;;;;;;;28.10;6.10;;;;;;;5.03;100.00;101611.78;4978127;28;20030;-85
2023/12/27 04:55:49;;;;;;;25.33;5.88;;;;;;;5.10;100.00;101599.72;4958575;28;20424;-85
2023/12/27 04:58:15;;;;;;;26.70;6.43;;;;;;;5.09;100.00;101591.63;4980584;28;20074;-85
2023/12/27 05:00:40;;;;;;;24.05;6.28;;;;;;;5.21;100.00;101598.34;4974686;28;20042;-85
2023/12/27 05:03:06;;;;;;;26.48;6.18;;;;;;;5.15;100.00;101580.50;4971260;28;20045;-85
2023/12/27 05:05:31;;;;;;;29.27;6.43;;;;;;;5.19;100.00;101590.28;4979776;28;20030;-85
2023/12/27 05:07:56;;;;;;;22.08;5.25;;;;;;;5.15;100.00;101583.22;4972564;28;20063;-85
2023/12/27 05:10:22;;;;;;;26.10;5.93;;;;;;;5.19;100.00;101582.13;4956326;28;20058;-84
2023/12/27 05:12:48;;;;;;;25.10;5.45;;;;;;;5.17;100.00;101575.88;4971935;28;20042;-85
2023/12/27 05:15:13;;;;;;;21.55;5.10;;;;;;;5.23;100.00;101572.91;4974835;28;20039;-86
2023/12/27 05:17:39;;;;;;;26.92;5.43;;;;;;;5.24;100.00;101571.94;4957109;28;20039;-85
2023/12/27 05:20:05;;;;;;;26.98;5.43;;;;;;;5.28;100.00;101565.44;4965247;28;20058;-86
2023/12/27 05:22:33;;;;;;;23.98;5.28;;;;;;;5.31;100.00;101559.88;4966993;28;20035;-81
2023/12/27 05:25:00;;;;;;;22.42;4.80;;;;;;;5.35;100.00;101566.03;4954080;28;20114;-81
2023/12/27 05:27:25;;;;;;;19.50;5.15;;;;;;;5.28;100.00;101548.22;4952289;28;20035;-82
2023/12/27 05:29:50;;;;;;;17.52;5.88;;;;;;;5.32;100.00;101550.75;4966030;28;20382;-80
2023/12/27 05:32:16;;;;;;;25.77;5.50;;;;;;;5.26;100.00;101548.34;4982129;28;20034;-83
2023/12/27 05:34:42;;;;;;;23.85;4.88;;;;;;;5.28;100.00;101546.44;4952686;28;20023;-80
2023/12/27 05:37:08;;;;;;;29.45;6.22;;;;;;;5.28;100.00;101553.66;4952786;28;20037;-83
2023/12/27 05:39:34;;;;;;;23.38;5.50;;;;;;;5.26;100.00;101552.88;4960493;28;20400;-82
2023/12/27 05:41:59;;;;;;;23.92;6.53;;;;;;;5.26;100.00;101551.06;4969131;28;20485;-83
2023/12/27 05:44:25;;;;;;;18.83;5.78;;;;;;;5.30;100.00;101559.94;4973123;28;20058;-84
2023/12/27 05:46:50;;;;;;;25.52;5.47;;;;;;;5.25;100.00;101556.53;4989925;28;20130;-82
2023/12/27 05:49:16;;;;;;;16.63;5.53;;;;;;;5.24;100.00;101561.06;4959911;28;20030;-80
2023/12/27 05:51:41;;;;;;;18.60;5.63;;;;;;;5.21;100.00;101558.50;4973758;28;20065;-83
2023/12/27 05:54:09;;;;;;;35.33;6.82;;;;;;;5.23;100.00;101564.75;4952435;28;20033;-80
2023/12/27 05:56:35;;;;;;;22.50;6.25;;;;;;;5.12;100.00;101550.78;4969484;28;20568;-79
2023/12/27 05:59:00;;;;;;;20.23;5.50;;;;;;;5.05;100.00;101549.28;4953564;28;20129;-80
2023/12/27 06:01:25;;;;;;;19.00;6.15;;;;;;;5.09;100.00;101542.78;4975964;28;20060;-82
2023/12/27 06:03:51;;;;;;;23.77;5.35;;;;;;;5.05;100.00;101542.03;4967836;28;20494;-81
2023/12/27 06:06:16;;;;;;;35.35;5.68;;;;;;;5.03;100.00;101534.91;4970027;28;20127;-81
2023/12/27 06:08:42;;;;;;;22.65;5.65;;;;;;;5.01;100.00;101528.69;4965070;28;20039;-82
2023/12/27 06:11:11;;;;;;;25.35;6.50;;;;;;;5.09;100.00;101526.50;4970082;28;20038;-79
2023/12/27 06:13:38;;;;;;;25.73;6.00;;;;;;;5.11;100.00;101530.00;4955284;28;20031;-79
2023/12/27 06:16:04;;;;;;;28.63;5.70;;;;;;;5.04;100.00;101525.81;4971780;28;20041;-79
2023/12/27 06:18:29;;;;;;;30.70;6.70;;;;;;;5.05;100.00;101522.16;4954954;28;20031;-79
2023/12/27 06:20:55;;;;;;;25.20;6.78;;;;;;;5.04;100.00;101514.97;4955528;28;20099;-83
2023/12/27 06:23:20;;;;;;;21.67;5.82;;;;;;;5.06;100.00;101503.06;4970936;28;21163;-82
2023/12/27 06:25:45;;;;;;;24.23;5.72;;;;;;;5.08;100.00;101500.28;4970971;28;20042;-81
2023/12/27 06:28:11;;;;;;;37.22;7.45;;;;;;;5.08;100.00;101494.88;4951525;28;20102;-81
2023/12/27 06:30:36;;;;;;;34.95;6.70;;;;;;;5.11;100.00;101489.31;4955806;28;20374;-81
2023/12/27 06:33:02;;;;;;;41.10;6.93;;;;;;;5.15;100.00;101488.22;4971878;28;20551;-81
2023/12/27 06:35:27;;;;;;;30.75;6.20;;;;;;;5.09;100.00;101474.94;4984735;28;20038;-81
2023/12/27 06:37:53;;;;;;;37.92;6.30;;;;;;;5.11;100.00;101479.31;4971110;28;20023;-81
2023/12/27 06:40:18;;;;;;;29.38;5.78;;;;;;;5.16;100.00;101473.69;4953522;28;20558;-82
2023/12/27 06:42:44;;;;;;;29.75;6.43;;;;;;;5.11;100.00;101462.16;4969089;28;20047;-83
2023/12/27 06:45:10;;;;;;;27.48;6.07;;;;;;;5.22;100.00;101465.25;4984003;28;20031;-84
2023/12/27 06:47:35;;;;;;;28.27;7.18;;;;;;;5.19;100.00;101462.69;4939258;28;20045;-83
2023/12/27 06:50:03;;;;;;;34.58;6.70;;;;;;;5.24;100.00;101452.47;4986005;28;20113;-83
2023/12/27 06:52:29;;;;;;;36.30;6.38;;;;;;;5.20;100.00;101445.44;4964784;28;20040;-83
2023/12/27 06:54:54;;;;;;;33.45;7.18;;;;;;;5.25;100.00;101451.53;4987803;28;20034;-82
2023/12/27 06:57:20;;;;;;;30.10;6.78;;;;;;;5.26;100.00;101446.97;4955530;28;20109;-81
2023/12/27 06:59:46;;;;;;;29.55;6.18;;;;;;;5.34;100.00;101448.41;4971328;28;20039;-81
2023/12/27 07:02:12;;;;;;;25.25;6.22;;;;;;;5.37;100.00;101444.63;4974013;28;20039;-82
2023/12/27 07:04:37;;;;;;;29.13;8.00;;;;;;;5.36;100.00;101439.28;4966739;28;20065;-81
2023/12/27 07:07:04;;;;;;;23.95;6.90;;;;;;;5.32;100.00;101442.13;4954303;28;20042;-81
2023/12/27 07:09:29;;;;;;;21.15;7.70;;;;;;;5.37;100.00;101432.91;4987583;28;20488;-81
2023/12/27 07:11:54;;;;;;;24.90;7.47;;;;;;;5.37;100.00;101427.47;4972342;28;20040;-81
2023/12/27 07:14:20;;;;;;;29.67;8.70;;;;;;;5.38;100.00;101438.28;4954874;28;20036;-82
2023/12/27 07:16:45;;;;;;;35.72;8.70;;;;;;;5.39;100.00;101434.56;4986550;28;20133;-81
2023/12/27 07:19:11;;;;;;;22.92;8.10;;;;;;;5.39;100.00;101434.56;4951193;28;20031;-81
2023/12/27 07:21:36;;;;;;;39.50;8.18;;;;;;;5.43;100.00;101436.22;4986758;28;20045;-82
2023/12/27 07:24:02;;;;;;;21.10;7.97;;;;;;;5.41;100.00;101421.84;4994725;28;20037;-82
2023/12/27 07:26:27;;;;;;;22.38;7.38;;;;;;;5.42;100.00;101431.72;4966788;28;20043;-82
2023/12/27 07:28:52;;;;;;;19.98;7.53;;;;;;;5.47;100.00;101432.38;4983627;28;20045;-82
2023/12/27 07:31:18;;;;;;;34.65;8.73;;;;;;;5.50;100.00;101429.50;4973254;28;20043;-83
2023/12/27 07:33:44;;;;;;;21.90;8.35;;;;;;;5.50;100.00;101425.91;4966135;28;20131;-82
2023/12/27 07:36:09;;;;;;;28.02;8.27;;;;;;;5.54;100.00;101427.53;4984704;28;20511;-81
2023/12/27 07:38:35;;;;;;;36.63;10.02;;;;;;;5.57;100.00;101418.34;4970301;28;20073;-81
2023/12/27 07:41:00;;;;;;;27.38;9.07;;;;;;;5.58;100.00;101418.28;4958088;28;20049;-80
2023/12/27 07:43:26;;;;;;;23.60;8.70;;;;;;;5.59;100.00;101421.88;4963838;28;20077;-84
2023/12/27 07:45:52;;;;;;;19.38;9.38;;;;;;;5.64;100.00;101419.81;4985177;28;20502;-81
2023/12/27 07:48:17;;;;;;;23.00;9.25;;;;;;;5.68;100.00;101419.56;4951168;28;20038;-81
2023/12/27 07:50:43;;;;;;;27.40;10.60;;;;;;;5.72;100.00;101420.31;4946351;28;20030;-81
2023/12/27 07:53:09;;;;;;;37.85;11.65;;;;;;;5.69;100.00;101410.47;4949925;28;20038;-81
2023/12/27 07:55:34;;;;;;;24.25;10.25;;;;;;;5.77;100.00;101417.34;4969622;28;20026;-81
2023/12/27 07:58:00;;;;;;;27.55;11.70;;;;;;;5.76;100.00;101410.19;4938279;28;20027;-81
2023/12/27 08:00:26;;;;;;;28.75;10.50;;;;;;;5.77;100.00;101420.06;4987316;28;20062;-81
2023/12/27 08:02:53;;;;;;;22.80;11.35;;;;;;;5.84;100.00;101425.13;4937230;28;20501;-83
2023/12/27 08:05:18;;;;;;;37.67;12.00;;;;;;;5.86;100.00;101427.78;4971050;28;20031;-82
2023/12/27 08:07:44;;;;;;;38.95;12.50;;;;;;;5.86;100.00;101422.34;4986619;28;20037;-82
2023/12/27 08:10:09;;;;;;;34.72;12.02;;;;;;;5.87;100.00;101424.09;4968394;28;20122;-82
2023/12/27 08:12:35;;;;;;;37.80;12.20;;;;;;;5.87;100.00;101424.09;4968527;28;20039;-82
2023/12/27 08:15:01;;;;;;;33.55;12.55;;;;;;;5.85;100.00;101410.59;4984581;28;20026;-82
2023/12/27 08:17:26;;;;;;;30.17;12.40;;;;;;;5.92;100.00;101415.69;4977067;28;20031;-81
2023/12/27 08:19:53;;;;;;;30.30;11.45;;;;;;;5.97;100.00;101417.28;4957055;28;20041;-82
2023/12/27 08:22:19;;;;;;;34.50;11.77;;;;;;;5.98;100.00;101416.31;4976309;28;20035;-82
2023/12/27 08:24:44;;;;;;;36.65;11.70;;;;;;;6.02;100.00;101409.78;4937560;28;20024;-82
2023/12/27 08:27:09;;;;;;;33.47;11.73;;;;;;;6.07;100.00;101409.53;4941680;28;20062;-80
2023/12/27 08:29:35;;;;;;;27.13;11.32;;;;;;;6.11;100.00;101404.81;4969300;28;20031;-81
2023/12/27 08:32:00;;;;;;;26.73;10.35;;;;;;;6.13;100.00;101406.47;4969248;28;20030;-83
2023/12/27 08:34:26;;;;;;;29.25;10.98;;;;;;;6.18;100.00;101400.81;4955829;28;20396;-82
2023/12/27 08:36:51;;;;;;;38.47;11.82;;;;;;;6.20;100.00;101405.22;4978556;28;20496;-83
2023/12/27 08:39:16;;;;;;;28.08;10.18;;;;;;;6.28;100.00;101390.34;4953688;28;20068;-83
2023/12/27 08:41:42;;;;;;;42.70;11.55;;;;;;;6.36;100.00;101397.16;4983052;28;20390;-83
2023/12/27 08:44:07;;;;;;;29.23;10.23;;;;;;;6.42;100.00;101388.63;4983234;28;20081;-83
2023/12/27 08:46:33;;;;;;;28.92;10.68;;;;;;;6.46;100.00;101383.94;4970752;28;20062;-83
2023/12/27 08:48:59;;;;;;;29.40;10.38;;;;;;;6.46;100.00;101378.50;4954428;28;20041;-84
2023/12/27 08:51:24;;;;;;;23.73;10.23;;;;;;;6.53;100.00;101379.91;4964628;28;20030;-84
2023/12/27 08:53:49;;;;;;;22.50;9.77;;;;;;;6.60;100.00;101362.28;4937793;28;20035;-84
2023/12/27 08:56:15;;;;;;;25.60;9.23;;;;;;;6.63;100.00;101348.53;4972474;28;20026;-84
2023/12/27 08:58:40;;;;;;;30.70;10.25;;;;;;;6.62;100.00;101343.16;4971401;28;20118;-84
2023/12/27 09:01:06;;;;;;;34.05;9.45;;;;;;;6.65;100.00;101351.16;4933992;28;20052;-85
2023/12/27 09:03:33;;;;;;;24.15;9.82;;;;;;;6.76;100.00;101359.63;4983897;28;20827;-84
2023/12/27 09:05:58;;;;;;;30.45;9.70;;;;;;;6.73;100.00;101357.06;4953063;28;20034;-85
2023/12/27 09:08:24;;;;;;;27.20;10.27;;;;;;;6.68;100.00;101345.56;4965031;28;20035;-85
2023/12/27 09:10:49;;;;;;;21.25;8.88;;;;;;;6.70;100.00;101343.63;4957863;28;20511;-85
2023/12/27 09:13:15;;;;;;;25.73;9.30;;;;;;;6.74;100.00;101341.59;4973557;28;20063;-85
2023/12/27 09:15:41;;;;;;;24.08;9.02;;;;;;;6.75;100.00;101343.38;4989926;28;20441;-85
2023/12/27 09:18:08;;;;;;;23.98;9.52;;;;;;;6.77;100.00;101322.38;4964294;28;20035;-85
2023/12/27 09:20:34;;;;;;;28.27;9.68;;;;;;;6.78;100.00;101330.47;4973246;28;20134;-85
2023/12/27 09:23:00;;;;;;;28.33;9.02;;;;;;;6.83;100.00;101332.06;4986139;28;20034;-85
2023/12/27 09:25:25;;;;;;;15.23;7.82;;;;;;;6.87;100.00;101341.81;4957803;28;20039;-85
2023/12/27 09:27:51;;;;;;;19.88;8.63;;;;;;;6.89;100.00;101332.59;4989653;28;20026;-85
2023/12/27 09:30:16;;;;;;;20.67;8.60;;;;;;;6.94;100.00;101343.25;4976637;28;20030;-85
2023/12/27 09:32:43;;;;;;;20.48;8.98;;;;;;;6.98;100.00;101347.53;4977074;28;20041;-85
2023/12/27 09:35:08;;;;;;;24.85;8.80;;;;;;;7.00;100.00;101337.41;4968222;28;20042;-85
2023/12/27 09:37:35;;;;;;;19.30;8.13;;;;;;;7.04;100.00;101319.97;4959457;28;20105;-85
2023/12/27 09:40:00;;;;;;;27.02;9.20;;;;;;;7.09;100.00;101315.13;4978153;28;20037;-86
2023/12/27 09:42:27;;;;;;;20.50;8.10;;;;;;;7.11;100.00;101310.47;4979841;28;20394;-85
2023/12/27 09:44:54;;;;;;;22.27;9.07;;;;;;;7.12;100.00;101317.69;4955807;28;20138;-85
2023/12/27 09:47:23;;;;;;;23.10;8.63;;;;;;;7.17;100.00;101320.16;4970269;28;20592;-85
2023/12/27 09:49:50;;;;;;;20.27;8.50;;;;;;;7.22;100.00;101319.88;4973958;28;20485;-86
2023/12/27 09:52:17;;;;;;;16.25;8.15;;;;;;;7.24;100.00;101316.09;4954258;28;20059;-86
2023/12/27 09:54:42;;;;;;;19.23;7.90;;;;;;;7.26;100.00;101319.59;4955274;28;20055;-85
2023/12/27 09:57:08;;;;;;;16.00;7.30;;;;;;;7.34;100.00;101317.31;4987767;28;20117;-86
2023/12/27 09:59:38;;;;;;;16.33;6.63;;;;;;;7.42;100.00;101311.41;4968870;28;20039;-86
2023/12/27 10:02:12;;;;;;;11.40;5.90;;;;;;;7.45;100.00;101308.53;4971448;28;20106;-86
2023/12/27 10:04:49;;;;;;;17.65;7.45;;;;;;;7.54;100.00;101310.72;4969970;28;20384;-84
2023/12/27 10:07:17;;;;;;;15.20;6.30;;;;;;;7.57;100.00;101295.13;4984073;28;20400;-85
2023/12/27 10:09:43;;;;;;;13.32;6.15;;;;;;;7.67;100.00;101285.44;4971715;28;20039;-85
2023/12/27 10:12:09;;;;;;;11.18;6.32;;;;;;;7.70;100.00;101280.66;4972133;28;20513;-85
2023/12/27 10:14:37;;;;;;;9.75;6.10;;;;;;;7.75;100.00;101279.53;4982805;28;20130;-85
2023/12/27 10:17:05;;;;;;;11.48;5.57;;;;;;;7.76;100.00;101284.91;4975929;28;20042;-85
2023/12/27 10:19:44;;;;;;;11.80;6.85;;;;;;;7.80;100.00;101296.47;4954076;28;20049;-84
2023/12/27 10:22:12;;;;;;;12.60;5.97;;;;;;;7.80;100.00;101297.34;4969223;28;20185;-86
2023/12/27 10:24:38;;;;;;;7.40;4.57;;;;;;;7.93;100.00;101293.91;4987401;28;20030;-85
2023/12/27 10:27:08;;;;;;;8.05;4.95;;;;;;;7.87;100.00;101282.41;4984058;28;20365;-84
2023/12/27 10:29:34;;;;;;;10.20;5.00;;;;;;;7.89;100.00;101285.91;4979071;28;21153;-84
2023/12/27 10:32:01;;;;;;;8.02;4.82;;;;;;;7.91;100.00;101283.94;4970808;28;20121;-84
2023/12/27 10:34:27;;;;;;;14.35;5.50;;;;;;;7.93;100.00;101277.53;4972416;28;20034;-86
2023/12/27 10:36:54;;;;;;;8.07;4.35;;;;;;;8.00;100.00;101274.34;4964669;28;20031;-84
2023/12/27 10:39:20;;;;;;;10.25;4.18;;;;;;;7.97;100.00;101257.28;4972595;28;20122;-85
2023/12/27 10:41:45;;;;;;;5.78;4.13;;;;;;;8.06;100.00;101260.31;4968789;28;20045;-86
2023/12/27 10:44:12;;;;;;;8.60;3.80;;;;;;;8.10;100.00;101256.44;4965685;28;20101;-85
2023/12/27 10:46:39;;;;;;;10.00;4.13;;;;;;;8.16;100.00;101255.16;4969211;28;20035;-84
2023/12/27 10:49:05;;;;;;;6.72;3.03;;;;;;;8.22;100.00;101243.88;4969821;28;20444;-84
2023/12/27 10:51:37;;;;;;;6.07;3.42;;;;;;;8.25;100.00;101235.50;4971547;28;20090;-86
2023/12/27 10:54:03;;;;;;;8.05;3.00;;;;;;;8.38;100.00;101226.50;4972835;28;20034;-86
2023/12/27 10:56:40;;;;;;;6.32;2.85;;;;;;;8.41;100.00;101234.50;4974215;28;20034;-87
2023/12/27 10:59:06;;;;;;;9.48;3.05;;;;;;;8.36;100.00;101234.81;4968423;28;20058;-85
2023/12/27 11:01:37;;;;;;;7.93;2.95;;;;;;;8.39;100.00;101228.28;4972179;28;20042;-88
2023/12/27 11:04:10;;;;;;;6.00;2.40;;;;;;;8.43;100.00;101217.09;4987059;28;20392;-86
2023/12/27 11:06:39;;;;;;;5.75;2.53;;;;;;;8.46;100.00;101208.72;4983972;28;20063;-85
2023/12/27 11:09:09;;;;;;;13.85;2.97;;;;;;;8.47;100.00;101206.88;4972486;28;20494;-87
2023/12/27 11:11:39;;;;;;;5.53;2.30;;;;;;;8.43;100.00;101206.19;4993255;28;20558;-85